sensor_id;sensor_type;location;lat;lon;timestamp;P1;durP1;ratioP1;P2;durP2;ratioP2
9948;SDS011;5013;51.840;8.276;2023-08-06T00:02:22;5.30;;;4.90;;
9948;SDS011;5013;51.840;8.276;2023-08-06T00:04:48;4.80;;;4.50;;
9948;SDS011;5013;51.840;8.276;2023-08-06T00:07:14;5.67;;;5.07;;
9948;SDS011;5013;51.840;8.276;2023-08-06T00:09:39;5.07;;;4.40;;
9948;SDS011;5013;51.840;8.276;2023-08-06T00:12:05;7.70;;;4.80;;
9948;SDS011;5013;51.840;8.276;2023-08-06T00:14:30;8.30;;;4.37;;
9948;SDS011;5013;51.840;8.276;2023-08-06T00:16:56;6.43;;;5.23;;
9948;SDS011;5013;51.840;8.276;2023-08-06T00:19:22;5.17;;;4.77;;
9948;SDS011;5013;51.840;8.276;2023-08-06T00:21:47;10.97;;;6.13;;
9948;SDS011;5013;51.840;8.276;2023-08-06T00:24:13;10.77;;;5.53;;
9948;SDS011;5013;51.840;8.276;2023-08-06T00:26:38;6.73;;;6.10;;
9948;SDS011;5013;51.840;8.276;2023-08-06T00:29:04;5.73;;;5.33;;
9948;SDS011;5013;51.840;8.276;2023-08-06T00:31:30;8.13;;;5.97;;
9948;SDS011;5013;51.840;8.276;2023-08-06T00:33:55;6.20;;;5.70;;
9948;SDS011;5013;51.840;8.276;2023-08-06T00:36:21;6.53;;;5.67;;
9948;SDS011;5013;51.840;8.276;2023-08-06T00:38:46;5.80;;;5.17;;
9948;SDS011;5013;51.840;8.276;2023-08-06T00:41:12;5.67;;;5.27;;
9948;SDS011;5013;51.840;8.276;2023-08-06T00:43:37;6.73;;;5.20;;
9948;SDS011;5013;51.840;8.276;2023-08-06T00:46:03;5.50;;;5.20;;
9948;SDS011;5013;51.840;8.276;2023-08-06T00:48:29;6.93;;;6.43;;
9948;SDS011;5013;51.840;8.276;2023-08-06T00:50:55;16.10;;;6.40;;
9948;SDS011;5013;51.840;8.276;2023-08-06T00:53:20;7.83;;;6.27;;
9948;SDS011;5013;51.840;8.276;2023-08-06T00:55:46;7.13;;;5.90;;
9948;SDS011;5013;51.840;8.276;2023-08-06T00:58:12;6.50;;;5.90;;
9948;SDS011;5013;51.840;8.276;2023-08-06T01:00:40;6.20;;;4.97;;
9948;SDS011;5013;51.840;8.276;2023-08-06T01:03:05;5.90;;;5.30;;
9948;SDS011;5013;51.840;8.276;2023-08-06T01:05:31;5.60;;;5.17;;
9948;SDS011;5013;51.840;8.276;2023-08-06T01:13:32;5.43;;;5.00;;
9948;SDS011;5013;51.840;8.276;2023-08-06T01:16:06;4.80;;;4.50;;
9948;SDS011;5013;51.840;8.276;2023-08-06T01:18:34;5.70;;;5.30;;
9948;SDS011;5013;51.840;8.276;2023-08-06T01:21:00;9.20;;;4.90;;
9948;SDS011;5013;51.840;8.276;2023-08-06T01:23:26;5.27;;;4.87;;
9948;SDS011;5013;51.840;8.276;2023-08-06T01:28:50;8.47;;;5.03;;
9948;SDS011;5013;51.840;8.276;2023-08-06T01:31:37;5.73;;;5.17;;
9948;SDS011;5013;51.840;8.276;2023-08-06T01:34:05;5.80;;;5.30;;
9948;SDS011;5013;51.840;8.276;2023-08-06T01:36:34;6.80;;;6.13;;
9948;SDS011;5013;51.840;8.276;2023-08-06T01:39:00;7.17;;;5.33;;
9948;SDS011;5013;51.840;8.276;2023-08-06T01:41:26;5.40;;;5.00;;
9948;SDS011;5013;51.840;8.276;2023-08-06T01:43:51;7.67;;;4.47;;
9948;SDS011;5013;51.840;8.276;2023-08-06T01:46:17;8.17;;;6.20;;
9948;SDS011;5013;51.840;8.276;2023-08-06T01:48:43;6.23;;;5.73;;
9948;SDS011;5013;51.840;8.276;2023-08-06T01:51:08;6.33;;;5.87;;
9948;SDS011;5013;51.840;8.276;2023-08-06T01:53:34;6.63;;;5.90;;
9948;SDS011;5013;51.840;8.276;2023-08-06T01:55:59;9.23;;;5.90;;
9948;SDS011;5013;51.840;8.276;2023-08-06T01:58:25;5.93;;;5.37;;
9948;SDS011;5013;51.840;8.276;2023-08-06T02:00:51;8.97;;;6.13;;
9948;SDS011;5013;51.840;8.276;2023-08-06T02:03:16;5.10;;;4.80;;
9948;SDS011;5013;51.840;8.276;2023-08-06T02:05:42;7.70;;;5.57;;
9948;SDS011;5013;51.840;8.276;2023-08-06T02:08:07;5.43;;;5.00;;
9948;SDS011;5013;51.840;8.276;2023-08-06T02:10:33;5.67;;;5.27;;
9948;SDS011;5013;51.840;8.276;2023-08-06T02:12:59;6.60;;;6.13;;
9948;SDS011;5013;51.840;8.276;2023-08-06T02:15:24;5.80;;;5.40;;
9948;SDS011;5013;51.840;8.276;2023-08-06T02:17:50;6.73;;;5.77;;
9948;SDS011;5013;51.840;8.276;2023-08-06T02:20:16;5.83;;;5.43;;
9948;SDS011;5013;51.840;8.276;2023-08-06T02:22:41;6.13;;;5.60;;
9948;SDS011;5013;51.840;8.276;2023-08-06T02:25:07;5.77;;;5.27;;
9948;SDS011;5013;51.840;8.276;2023-08-06T02:27:33;5.40;;;4.77;;
9948;SDS011;5013;51.840;8.276;2023-08-06T02:29:58;5.43;;;4.90;;
9948;SDS011;5013;51.840;8.276;2023-08-06T02:32:24;5.30;;;4.90;;
9948;SDS011;5013;51.840;8.276;2023-08-06T02:34:49;5.63;;;5.17;;
9948;SDS011;5013;51.840;8.276;2023-08-06T02:37:15;6.37;;;4.77;;
9948;SDS011;5013;51.840;8.276;2023-08-06T02:39:40;6.20;;;5.10;;
9948;SDS011;5013;51.840;8.276;2023-08-06T02:42:06;5.23;;;4.80;;
9948;SDS011;5013;51.840;8.276;2023-08-06T02:44:32;6.23;;;5.07;;
9948;SDS011;5013;51.840;8.276;2023-08-06T02:46:58;5.50;;;5.00;;
9948;SDS011;5013;51.840;8.276;2023-08-06T02:49:24;6.00;;;5.43;;
9948;SDS011;5013;51.840;8.276;2023-08-06T02:51:50;4.70;;;4.30;;
9948;SDS011;5013;51.840;8.276;2023-08-06T02:54:15;5.10;;;4.80;;
9948;SDS011;5013;51.840;8.276;2023-08-06T02:56:47;10.90;;;4.90;;
9948;SDS011;5013;51.840;8.276;2023-08-06T02:59:13;5.97;;;5.20;;
9948;SDS011;5013;51.840;8.276;2023-08-06T03:01:38;5.10;;;4.60;;
9948;SDS011;5013;51.840;8.276;2023-08-06T03:04:04;4.63;;;4.33;;
9948;SDS011;5013;51.840;8.276;2023-08-06T03:06:30;5.30;;;4.93;;
9948;SDS011;5013;51.840;8.276;2023-08-06T03:08:56;6.70;;;5.20;;
9948;SDS011;5013;51.840;8.276;2023-08-06T03:11:22;6.37;;;5.10;;
9948;SDS011;5013;51.840;8.276;2023-08-06T03:13:47;4.77;;;4.43;;
9948;SDS011;5013;51.840;8.276;2023-08-06T03:16:13;4.90;;;4.60;;
9948;SDS011;5013;51.840;8.276;2023-08-06T03:18:39;5.60;;;5.10;;
9948;SDS011;5013;51.840;8.276;2023-08-06T03:21:04;5.30;;;5.00;;
9948;SDS011;5013;51.840;8.276;2023-08-06T03:23:30;5.77;;;5.37;;
9948;SDS011;5013;51.840;8.276;2023-08-06T03:25:56;6.13;;;5.57;;
9948;SDS011;5013;51.840;8.276;2023-08-06T03:28:25;5.63;;;5.20;;
9948;SDS011;5013;51.840;8.276;2023-08-06T03:30:58;6.60;;;5.73;;
9948;SDS011;5013;51.840;8.276;2023-08-06T03:33:25;6.13;;;4.70;;
9948;SDS011;5013;51.840;8.276;2023-08-06T03:35:50;8.60;;;5.90;;
9948;SDS011;5013;51.840;8.276;2023-08-06T03:38:16;5.53;;;5.00;;
9948;SDS011;5013;51.840;8.276;2023-08-06T03:40:41;7.97;;;6.60;;
9948;SDS011;5013;51.840;8.276;2023-08-06T03:43:08;7.50;;;5.73;;
9948;SDS011;5013;51.840;8.276;2023-08-06T03:45:33;6.67;;;6.17;;
9948;SDS011;5013;51.840;8.276;2023-08-06T03:47:59;9.20;;;6.00;;
9948;SDS011;5013;51.840;8.276;2023-08-06T03:50:24;5.77;;;5.47;;
9948;SDS011;5013;51.840;8.276;2023-08-06T03:52:50;5.30;;;4.90;;
9948;SDS011;5013;51.840;8.276;2023-08-06T03:55:16;5.23;;;4.93;;
9948;SDS011;5013;51.840;8.276;2023-08-06T03:57:41;6.27;;;5.67;;
9948;SDS011;5013;51.840;8.276;2023-08-06T04:00:07;7.23;;;6.50;;
9948;SDS011;5013;51.840;8.276;2023-08-06T04:02:33;10.57;;;6.67;;
9948;SDS011;5013;51.840;8.276;2023-08-06T04:04:58;6.10;;;5.60;;
9948;SDS011;5013;51.840;8.276;2023-08-06T04:07:25;9.70;;;6.17;;
9948;SDS011;5013;51.840;8.276;2023-08-06T04:09:54;6.73;;;6.03;;
9948;SDS011;5013;51.840;8.276;2023-08-06T04:12:24;7.37;;;6.20;;
9948;SDS011;5013;51.840;8.276;2023-08-06T04:14:50;6.97;;;6.40;;
9948;SDS011;5013;51.840;8.276;2023-08-06T04:17:20;6.70;;;6.20;;
9948;SDS011;5013;51.840;8.276;2023-08-06T04:19:53;7.10;;;6.30;;
9948;SDS011;5013;51.840;8.276;2023-08-06T04:22:19;6.47;;;5.97;;
9948;SDS011;5013;51.840;8.276;2023-08-06T04:24:46;6.93;;;6.30;;
9948;SDS011;5013;51.840;8.276;2023-08-06T04:27:12;9.83;;;5.83;;
9948;SDS011;5013;51.840;8.276;2023-08-06T04:29:39;6.77;;;6.17;;
9948;SDS011;5013;51.840;8.276;2023-08-06T04:32:06;9.37;;;6.07;;
9948;SDS011;5013;51.840;8.276;2023-08-06T04:34:33;6.30;;;5.90;;
9948;SDS011;5013;51.840;8.276;2023-08-06T04:36:59;10.40;;;5.77;;
9948;SDS011;5013;51.840;8.276;2023-08-06T04:39:25;6.30;;;5.80;;
9948;SDS011;5013;51.840;8.276;2023-08-06T04:41:50;6.53;;;6.07;;
9948;SDS011;5013;51.840;8.276;2023-08-06T04:44:16;6.77;;;6.13;;
9948;SDS011;5013;51.840;8.276;2023-08-06T04:46:41;6.03;;;5.43;;
9948;SDS011;5013;51.840;8.276;2023-08-06T04:49:07;6.27;;;5.83;;
9948;SDS011;5013;51.840;8.276;2023-08-06T04:51:32;6.10;;;5.60;;
9948;SDS011;5013;51.840;8.276;2023-08-06T04:53:58;6.40;;;6.10;;
9948;SDS011;5013;51.840;8.276;2023-08-06T04:56:23;5.60;;;5.20;;
9948;SDS011;5013;51.840;8.276;2023-08-06T04:58:49;5.90;;;5.57;;
9948;SDS011;5013;51.840;8.276;2023-08-06T05:01:15;6.47;;;5.87;;
9948;SDS011;5013;51.840;8.276;2023-08-06T05:03:41;6.10;;;5.70;;
9948;SDS011;5013;51.840;8.276;2023-08-06T05:06:06;5.27;;;4.87;;
9948;SDS011;5013;51.840;8.276;2023-08-06T05:08:32;7.07;;;5.90;;
9948;SDS011;5013;51.840;8.276;2023-08-06T05:10:58;5.20;;;4.40;;
9948;SDS011;5013;51.840;8.276;2023-08-06T05:13:25;5.50;;;5.10;;
9948;SDS011;5013;51.840;8.276;2023-08-06T05:15:53;5.67;;;5.27;;
9948;SDS011;5013;51.840;8.276;2023-08-06T05:18:19;5.13;;;4.50;;
9948;SDS011;5013;51.840;8.276;2023-08-06T05:20:44;4.50;;;4.20;;
9948;SDS011;5013;51.840;8.276;2023-08-06T05:23:10;5.13;;;4.50;;
9948;SDS011;5013;51.840;8.276;2023-08-06T05:25:36;3.93;;;3.73;;
9948;SDS011;5013;51.840;8.276;2023-08-06T05:28:02;4.93;;;4.43;;
9948;SDS011;5013;51.840;8.276;2023-08-06T05:30:28;5.80;;;4.23;;
9948;SDS011;5013;51.840;8.276;2023-08-06T05:32:54;5.60;;;5.00;;
9948;SDS011;5013;51.840;8.276;2023-08-06T05:35:20;5.23;;;4.93;;
9948;SDS011;5013;51.840;8.276;2023-08-06T05:37:46;4.93;;;4.43;;
9948;SDS011;5013;51.840;8.276;2023-08-06T05:40:12;4.87;;;4.47;;
9948;SDS011;5013;51.840;8.276;2023-08-06T05:42:38;4.70;;;4.40;;
9948;SDS011;5013;51.840;8.276;2023-08-06T05:45:04;5.87;;;4.93;;
9948;SDS011;5013;51.840;8.276;2023-08-06T05:47:29;6.37;;;4.33;;
9948;SDS011;5013;51.840;8.276;2023-08-06T05:49:55;4.70;;;4.30;;
9948;SDS011;5013;51.840;8.276;2023-08-06T05:52:21;4.17;;;3.97;;
9948;SDS011;5013;51.840;8.276;2023-08-06T05:54:46;4.43;;;4.13;;
9948;SDS011;5013;51.840;8.276;2023-08-06T05:57:12;10.67;;;5.07;;
9948;SDS011;5013;51.840;8.276;2023-08-06T05:59:37;4.90;;;3.97;;
9948;SDS011;5013;51.840;8.276;2023-08-06T06:02:03;5.57;;;4.10;;
9948;SDS011;5013;51.840;8.276;2023-08-06T06:04:29;4.30;;;3.90;;
9948;SDS011;5013;51.840;8.276;2023-08-06T06:06:54;4.27;;;3.97;;
9948;SDS011;5013;51.840;8.276;2023-08-06T06:09:20;5.60;;;4.50;;
9948;SDS011;5013;51.840;8.276;2023-08-06T06:11:45;7.03;;;4.40;;
9948;SDS011;5013;51.840;8.276;2023-08-06T06:14:12;3.97;;;3.77;;
9948;SDS011;5013;51.840;8.276;2023-08-06T06:16:38;8.90;;;4.80;;
9948;SDS011;5013;51.840;8.276;2023-08-06T06:19:03;4.67;;;3.90;;
9948;SDS011;5013;51.840;8.276;2023-08-06T06:21:29;3.93;;;3.73;;
9948;SDS011;5013;51.840;8.276;2023-08-06T06:23:54;5.33;;;4.30;;
9948;SDS011;5013;51.840;8.276;2023-08-06T06:26:21;4.57;;;4.20;;
9948;SDS011;5013;51.840;8.276;2023-08-06T06:28:47;4.33;;;4.03;;
9948;SDS011;5013;51.840;8.276;2023-08-06T06:31:12;4.47;;;4.27;;
9948;SDS011;5013;51.840;8.276;2023-08-06T06:33:38;5.07;;;4.53;;
9948;SDS011;5013;51.840;8.276;2023-08-06T06:36:03;4.13;;;3.93;;
9948;SDS011;5013;51.840;8.276;2023-08-06T06:38:29;4.60;;;4.30;;
9948;SDS011;5013;51.840;8.276;2023-08-06T06:40:55;4.53;;;4.23;;
9948;SDS011;5013;51.840;8.276;2023-08-06T06:43:21;5.37;;;4.90;;
9948;SDS011;5013;51.840;8.276;2023-08-06T06:45:47;6.20;;;5.23;;
9948;SDS011;5013;51.840;8.276;2023-08-06T06:48:18;4.87;;;4.57;;
9948;SDS011;5013;51.840;8.276;2023-08-06T06:50:46;4.77;;;4.03;;
9948;SDS011;5013;51.840;8.276;2023-08-06T06:53:13;5.13;;;4.57;;
9948;SDS011;5013;51.840;8.276;2023-08-06T06:55:39;4.13;;;3.70;;
9948;SDS011;5013;51.840;8.276;2023-08-06T06:58:04;4.50;;;4.20;;
9948;SDS011;5013;51.840;8.276;2023-08-06T07:00:30;5.30;;;3.50;;
9948;SDS011;5013;51.840;8.276;2023-08-06T07:02:55;8.37;;;3.93;;
9948;SDS011;5013;51.840;8.276;2023-08-06T07:05:21;5.27;;;4.43;;
9948;SDS011;5013;51.840;8.276;2023-08-06T07:07:46;3.83;;;3.47;;
9948;SDS011;5013;51.840;8.276;2023-08-06T07:10:12;5.00;;;4.00;;
9948;SDS011;5013;51.840;8.276;2023-08-06T07:12:38;6.40;;;3.87;;
9948;SDS011;5013;51.840;8.276;2023-08-06T07:15:05;6.27;;;3.70;;
9948;SDS011;5013;51.840;8.276;2023-08-06T07:17:31;3.63;;;3.53;;
9948;SDS011;5013;51.840;8.276;2023-08-06T07:19:57;3.97;;;3.57;;
9948;SDS011;5013;51.840;8.276;2023-08-06T07:22:23;4.83;;;4.33;;
9948;SDS011;5013;51.840;8.276;2023-08-06T07:24:48;4.03;;;3.80;;
9948;SDS011;5013;51.840;8.276;2023-08-06T07:27:14;4.63;;;4.17;;
9948;SDS011;5013;51.840;8.276;2023-08-06T07:29:39;4.03;;;3.63;;
9948;SDS011;5013;51.840;8.276;2023-08-06T07:32:06;4.17;;;3.77;;
9948;SDS011;5013;51.840;8.276;2023-08-06T07:34:32;7.23;;;3.63;;
9948;SDS011;5013;51.840;8.276;2023-08-06T07:36:58;5.93;;;3.60;;
9948;SDS011;5013;51.840;8.276;2023-08-06T07:39:23;3.80;;;3.60;;
9948;SDS011;5013;51.840;8.276;2023-08-06T07:41:49;5.20;;;3.60;;
9948;SDS011;5013;51.840;8.276;2023-08-06T07:44:15;4.97;;;4.07;;
9948;SDS011;5013;51.840;8.276;2023-08-06T07:46:40;3.67;;;3.37;;
9948;SDS011;5013;51.840;8.276;2023-08-06T07:49:06;4.77;;;3.40;;
9948;SDS011;5013;51.840;8.276;2023-08-06T07:51:31;3.23;;;3.03;;
9948;SDS011;5013;51.840;8.276;2023-08-06T07:53:57;5.57;;;3.17;;
9948;SDS011;5013;51.840;8.276;2023-08-06T07:56:22;2.40;;;2.30;;
9948;SDS011;5013;51.840;8.276;2023-08-06T07:58:48;2.83;;;2.63;;
9948;SDS011;5013;51.840;8.276;2023-08-06T08:01:14;3.67;;;2.97;;
9948;SDS011;5013;51.840;8.276;2023-08-06T08:03:39;3.43;;;3.13;;
9948;SDS011;5013;51.840;8.276;2023-08-06T08:06:05;2.30;;;2.20;;
9948;SDS011;5013;51.840;8.276;2023-08-06T08:08:30;4.73;;;2.20;;
9948;SDS011;5013;51.840;8.276;2023-08-06T08:10:56;2.27;;;2.10;;
9948;SDS011;5013;51.840;8.276;2023-08-06T08:13:23;2.50;;;2.40;;
9948;SDS011;5013;51.840;8.276;2023-08-06T08:15:49;3.57;;;2.67;;
9948;SDS011;5013;51.840;8.276;2023-08-06T08:18:15;3.37;;;2.73;;
9948;SDS011;5013;51.840;8.276;2023-08-06T08:20:40;2.40;;;2.20;;
9948;SDS011;5013;51.840;8.276;2023-08-06T08:23:06;2.53;;;2.00;;
9948;SDS011;5013;51.840;8.276;2023-08-06T08:25:31;3.10;;;2.10;;
9948;SDS011;5013;51.840;8.276;2023-08-06T08:27:59;4.10;;;2.10;;
9948;SDS011;5013;51.840;8.276;2023-08-06T08:30:24;2.65;;;2.15;;
9948;SDS011;5013;51.840;8.276;2023-08-06T08:32:50;5.15;;;2.03;;
9948;SDS011;5013;51.840;8.276;2023-08-06T08:35:15;4.67;;;2.23;;
9948;SDS011;5013;51.840;8.276;2023-08-06T08:37:42;2.70;;;2.50;;
9948;SDS011;5013;51.840;8.276;2023-08-06T08:40:08;2.07;;;1.97;;
9948;SDS011;5013;51.840;8.276;2023-08-06T08:42:35;2.10;;;1.87;;
9948;SDS011;5013;51.840;8.276;2023-08-06T08:45:02;2.10;;;1.90;;
9948;SDS011;5013;51.840;8.276;2023-08-06T08:47:29;1.97;;;1.87;;
9948;SDS011;5013;51.840;8.276;2023-08-06T08:49:56;2.17;;;2.07;;
9948;SDS011;5013;51.840;8.276;2023-08-06T08:52:22;12.00;;;1.87;;
9948;SDS011;5013;51.840;8.276;2023-08-06T08:54:50;2.40;;;1.90;;
9948;SDS011;5013;51.840;8.276;2023-08-06T08:57:17;2.53;;;2.20;;
9948;SDS011;5013;51.840;8.276;2023-08-06T08:59:43;3.37;;;2.13;;
9948;SDS011;5013;51.840;8.276;2023-08-06T09:02:11;2.53;;;2.23;;
9948;SDS011;5013;51.840;8.276;2023-08-06T09:04:40;3.40;;;2.40;;
9948;SDS011;5013;51.840;8.276;2023-08-06T09:07:06;2.17;;;2.00;;
9948;SDS011;5013;51.840;8.276;2023-08-06T09:09:34;2.00;;;1.90;;
9948;SDS011;5013;51.840;8.276;2023-08-06T09:12:14;2.37;;;1.80;;
9948;SDS011;5013;51.840;8.276;2023-08-06T09:14:41;2.13;;;2.03;;
9948;SDS011;5013;51.840;8.276;2023-08-06T09:17:07;2.10;;;1.90;;
9948;SDS011;5013;51.840;8.276;2023-08-06T09:19:35;1.80;;;1.67;;
9948;SDS011;5013;51.840;8.276;2023-08-06T09:22:01;2.13;;;1.93;;
9948;SDS011;5013;51.840;8.276;2023-08-06T09:24:27;4.30;;;2.10;;
9948;SDS011;5013;51.840;8.276;2023-08-06T09:26:53;3.50;;;2.40;;
9948;SDS011;5013;51.840;8.276;2023-08-06T09:29:19;1.73;;;1.67;;
9948;SDS011;5013;51.840;8.276;2023-08-06T09:31:48;1.90;;;1.80;;
9948;SDS011;5013;51.840;8.276;2023-08-06T09:34:21;2.00;;;1.90;;
9948;SDS011;5013;51.840;8.276;2023-08-06T09:36:51;2.97;;;2.00;;
9948;SDS011;5013;51.840;8.276;2023-08-06T09:39:19;2.10;;;2.00;;
9948;SDS011;5013;51.840;8.276;2023-08-06T09:41:46;1.70;;;1.60;;
9948;SDS011;5013;51.840;8.276;2023-08-06T09:44:18;2.57;;;2.37;;
9948;SDS011;5013;51.840;8.276;2023-08-06T09:46:49;3.60;;;1.77;;
9948;SDS011;5013;51.840;8.276;2023-08-06T09:49:16;1.80;;;1.80;;
9948;SDS011;5013;51.840;8.276;2023-08-06T09:51:43;2.33;;;2.20;;
9948;SDS011;5013;51.840;8.276;2023-08-06T09:54:11;3.33;;;1.90;;
9948;SDS011;5013;51.840;8.276;2023-08-06T09:56:37;2.30;;;2.00;;
9948;SDS011;5013;51.840;8.276;2023-08-06T09:59:06;2.03;;;1.93;;
9948;SDS011;5013;51.840;8.276;2023-08-06T10:01:35;2.80;;;2.60;;
9948;SDS011;5013;51.840;8.276;2023-08-06T10:04:02;2.43;;;2.23;;
9948;SDS011;5013;51.840;8.276;2023-08-06T10:06:29;2.70;;;2.50;;
9948;SDS011;5013;51.840;8.276;2023-08-06T10:08:55;2.20;;;2.10;;
9948;SDS011;5013;51.840;8.276;2023-08-06T10:11:21;2.93;;;2.30;;
9948;SDS011;5013;51.840;8.276;2023-08-06T10:13:49;2.07;;;1.97;;
9948;SDS011;5013;51.840;8.276;2023-08-06T10:16:18;2.30;;;2.10;;
9948;SDS011;5013;51.840;8.276;2023-08-06T10:18:44;2.33;;;2.13;;
9948;SDS011;5013;51.840;8.276;2023-08-06T10:21:11;2.10;;;2.00;;
9948;SDS011;5013;51.840;8.276;2023-08-06T10:23:39;3.10;;;2.10;;
9948;SDS011;5013;51.840;8.276;2023-08-06T10:26:05;2.73;;;2.57;;
9948;SDS011;5013;51.840;8.276;2023-08-06T10:28:36;4.03;;;1.80;;
9948;SDS011;5013;51.840;8.276;2023-08-06T10:31:03;2.43;;;2.20;;
9948;SDS011;5013;51.840;8.276;2023-08-06T10:36:11;2.50;;;2.27;;
9948;SDS011;5013;51.840;8.276;2023-08-06T10:38:47;2.10;;;2.00;;
9948;SDS011;5013;51.840;8.276;2023-08-06T10:41:23;3.10;;;2.23;;
9948;SDS011;5013;51.840;8.276;2023-08-06T10:44:04;2.37;;;2.20;;
9948;SDS011;5013;51.840;8.276;2023-08-06T10:46:32;1.87;;;1.67;;
9948;SDS011;5013;51.840;8.276;2023-08-06T10:48:58;2.10;;;2.00;;
9948;SDS011;5013;51.840;8.276;2023-08-06T10:51:24;3.07;;;2.23;;
9948;SDS011;5013;51.840;8.276;2023-08-06T10:53:50;1.97;;;1.87;;
9948;SDS011;5013;51.840;8.276;2023-08-06T10:56:17;2.27;;;1.87;;
9948;SDS011;5013;51.840;8.276;2023-08-06T10:58:46;1.50;;;1.50;;
9948;SDS011;5013;51.840;8.276;2023-08-06T11:01:13;1.77;;;1.67;;
9948;SDS011;5013;51.840;8.276;2023-08-06T11:03:40;2.10;;;2.00;;
9948;SDS011;5013;51.840;8.276;2023-08-06T11:06:06;2.00;;;1.90;;
9948;SDS011;5013;51.840;8.276;2023-08-06T11:08:46;2.27;;;1.87;;
9948;SDS011;5013;51.840;8.276;2023-08-06T11:11:14;2.73;;;1.73;;
9948;SDS011;5013;51.840;8.276;2023-08-06T11:13:43;2.10;;;2.00;;
9948;SDS011;5013;51.840;8.276;2023-08-06T11:16:14;2.20;;;2.10;;
9948;SDS011;5013;51.840;8.276;2023-08-06T11:18:41;1.80;;;1.70;;
9948;SDS011;5013;51.840;8.276;2023-08-06T11:21:09;2.10;;;2.00;;
9948;SDS011;5013;51.840;8.276;2023-08-06T11:23:36;1.97;;;1.77;;
9948;SDS011;5013;51.840;8.276;2023-08-06T11:26:02;1.73;;;1.73;;
9948;SDS011;5013;51.840;8.276;2023-08-06T11:28:28;2.00;;;1.90;;
9948;SDS011;5013;51.840;8.276;2023-08-06T11:30:53;1.90;;;1.80;;
9948;SDS011;5013;51.840;8.276;2023-08-06T11:33:22;2.00;;;1.90;;
9948;SDS011;5013;51.840;8.276;2023-08-06T11:35:48;2.50;;;2.40;;
9948;SDS011;5013;51.840;8.276;2023-08-06T11:38:13;4.93;;;2.40;;
9948;SDS011;5013;51.840;8.276;2023-08-06T11:40:39;3.60;;;2.20;;
9948;SDS011;5013;51.840;8.276;2023-08-06T11:43:05;2.10;;;2.00;;
9948;SDS011;5013;51.840;8.276;2023-08-06T11:45:32;3.50;;;2.60;;
9948;SDS011;5013;51.840;8.276;2023-08-06T11:48:00;3.43;;;3.10;;
9948;SDS011;5013;51.840;8.276;2023-08-06T11:50:26;10.53;;;5.23;;
9948;SDS011;5013;51.840;8.276;2023-08-06T11:52:58;17.60;;;5.50;;
9948;SDS011;5013;51.840;8.276;2023-08-06T11:55:25;18.17;;;5.30;;
9948;SDS011;5013;51.840;8.276;2023-08-06T11:57:53;13.67;;;5.00;;
9948;SDS011;5013;51.840;8.276;2023-08-06T12:00:20;5.80;;;3.77;;
9948;SDS011;5013;51.840;8.276;2023-08-06T12:02:49;6.83;;;4.17;;
9948;SDS011;5013;51.840;8.276;2023-08-06T12:05:17;4.63;;;3.37;;
9948;SDS011;5013;51.840;8.276;2023-08-06T12:07:48;6.50;;;3.93;;
9948;SDS011;5013;51.840;8.276;2023-08-06T12:10:18;7.47;;;5.00;;
9948;SDS011;5013;51.840;8.276;2023-08-06T12:12:45;4.70;;;4.30;;
9948;SDS011;5013;51.840;8.276;2023-08-06T12:15:11;8.97;;;4.90;;
9948;SDS011;5013;51.840;8.276;2023-08-06T12:17:37;4.17;;;3.93;;
9948;SDS011;5013;51.840;8.276;2023-08-06T12:20:04;4.03;;;3.73;;
9948;SDS011;5013;51.840;8.276;2023-08-06T12:22:30;3.40;;;3.10;;
9948;SDS011;5013;51.840;8.276;2023-08-06T12:25:04;4.17;;;3.60;;
9948;SDS011;5013;51.840;8.276;2023-08-06T12:27:36;4.90;;;3.80;;
9948;SDS011;5013;51.840;8.276;2023-08-06T12:30:03;3.20;;;2.97;;
9948;SDS011;5013;51.840;8.276;2023-08-06T12:32:30;3.20;;;3.00;;
9948;SDS011;5013;51.840;8.276;2023-08-06T12:34:55;3.03;;;2.73;;
9948;SDS011;5013;51.840;8.276;2023-08-06T12:37:21;4.77;;;2.87;;
9948;SDS011;5013;51.840;8.276;2023-08-06T12:39:48;2.47;;;2.37;;
9948;SDS011;5013;51.840;8.276;2023-08-06T12:42:13;2.77;;;2.53;;
9948;SDS011;5013;51.840;8.276;2023-08-06T12:44:39;2.77;;;2.57;;
9948;SDS011;5013;51.840;8.276;2023-08-06T12:47:04;3.40;;;3.10;;
9948;SDS011;5013;51.840;8.276;2023-08-06T12:49:32;3.90;;;3.50;;
9948;SDS011;5013;51.840;8.276;2023-08-06T12:51:58;3.40;;;3.10;;
9948;SDS011;5013;51.840;8.276;2023-08-06T12:54:24;3.10;;;2.90;;
9948;SDS011;5013;51.840;8.276;2023-08-06T12:56:50;3.23;;;2.70;;
9948;SDS011;5013;51.840;8.276;2023-08-06T12:59:16;4.60;;;2.83;;
9948;SDS011;5013;51.840;8.276;2023-08-06T13:01:43;3.17;;;2.90;;
9948;SDS011;5013;51.840;8.276;2023-08-06T13:04:09;3.40;;;3.20;;
9948;SDS011;5013;51.840;8.276;2023-08-06T13:06:35;2.97;;;2.87;;
9948;SDS011;5013;51.840;8.276;2023-08-06T13:09:02;3.67;;;3.37;;
9948;SDS011;5013;51.840;8.276;2023-08-06T13:11:29;3.83;;;3.37;;
9948;SDS011;5013;51.840;8.276;2023-08-06T13:13:56;4.50;;;3.43;;
9948;SDS011;5013;51.840;8.276;2023-08-06T13:16:32;4.37;;;4.07;;
9948;SDS011;5013;51.840;8.276;2023-08-06T13:18:58;3.73;;;2.50;;
9948;SDS011;5013;51.840;8.276;2023-08-06T13:21:24;2.63;;;2.43;;
9948;SDS011;5013;51.840;8.276;2023-08-06T13:23:57;2.60;;;2.40;;
9948;SDS011;5013;51.840;8.276;2023-08-06T13:26:22;4.57;;;2.33;;
9948;SDS011;5013;51.840;8.276;2023-08-06T13:28:48;1.77;;;1.77;;
9948;SDS011;5013;51.840;8.276;2023-08-06T13:31:14;2.17;;;2.07;;
9948;SDS011;5013;51.840;8.276;2023-08-06T13:33:39;3.47;;;2.40;;
9948;SDS011;5013;51.840;8.276;2023-08-06T13:36:05;2.37;;;2.17;;
9948;SDS011;5013;51.840;8.276;2023-08-06T13:38:31;2.13;;;2.07;;
9948;SDS011;5013;51.840;8.276;2023-08-06T13:40:57;2.60;;;2.50;;
9948;SDS011;5013;51.840;8.276;2023-08-06T13:43:23;2.50;;;2.30;;
9948;SDS011;5013;51.840;8.276;2023-08-06T13:45:49;2.50;;;2.30;;
9948;SDS011;5013;51.840;8.276;2023-08-06T13:48:15;2.33;;;2.23;;
9948;SDS011;5013;51.840;8.276;2023-08-06T13:50:40;5.07;;;2.50;;
9948;SDS011;5013;51.840;8.276;2023-08-06T13:53:06;2.30;;;2.10;;
9948;SDS011;5013;51.840;8.276;2023-08-06T13:55:31;2.40;;;2.30;;
9948;SDS011;5013;51.840;8.276;2023-08-06T13:57:57;2.63;;;2.50;;
9948;SDS011;5013;51.840;8.276;2023-08-06T14:00:22;2.20;;;2.00;;
9948;SDS011;5013;51.840;8.276;2023-08-06T14:02:48;4.57;;;2.40;;
9948;SDS011;5013;51.840;8.276;2023-08-06T14:05:13;4.50;;;2.67;;
9948;SDS011;5013;51.840;8.276;2023-08-06T14:07:39;2.60;;;2.40;;
9948;SDS011;5013;51.840;8.276;2023-08-06T14:10:05;2.80;;;2.40;;
9948;SDS011;5013;51.840;8.276;2023-08-06T14:12:31;2.43;;;2.23;;
9948;SDS011;5013;51.840;8.276;2023-08-06T14:14:57;4.53;;;2.30;;
9948;SDS011;5013;51.840;8.276;2023-08-06T14:17:22;2.20;;;2.10;;
9948;SDS011;5013;51.840;8.276;2023-08-06T14:19:48;3.60;;;2.20;;
9948;SDS011;5013;51.840;8.276;2023-08-06T14:22:13;2.13;;;2.03;;
9948;SDS011;5013;51.840;8.276;2023-08-06T14:24:39;2.03;;;1.93;;
9948;SDS011;5013;51.840;8.276;2023-08-06T14:27:05;7.13;;;5.80;;
9948;SDS011;5013;51.840;8.276;2023-08-06T14:29:31;4.80;;;2.60;;
9948;SDS011;5013;51.840;8.276;2023-08-06T14:31:57;6.37;;;2.37;;
9948;SDS011;5013;51.840;8.276;2023-08-06T14:34:22;2.60;;;2.40;;
9948;SDS011;5013;51.840;8.276;2023-08-06T14:36:48;2.27;;;2.13;;
9948;SDS011;5013;51.840;8.276;2023-08-06T14:39:13;2.73;;;2.43;;
9948;SDS011;5013;51.840;8.276;2023-08-06T14:41:39;2.53;;;2.33;;
9948;SDS011;5013;51.840;8.276;2023-08-06T14:44:05;3.27;;;2.70;;
9948;SDS011;5013;51.840;8.276;2023-08-06T14:46:32;3.20;;;2.90;;
9948;SDS011;5013;51.840;8.276;2023-08-06T14:48:58;3.17;;;2.97;;
9948;SDS011;5013;51.840;8.276;2023-08-06T14:51:23;5.40;;;2.93;;
9948;SDS011;5013;51.840;8.276;2023-08-06T14:53:49;3.63;;;2.40;;
9948;SDS011;5013;51.840;8.276;2023-08-06T14:56:15;3.10;;;1.60;;
9948;SDS011;5013;51.840;8.276;2023-08-06T14:58:40;2.73;;;1.90;;
9948;SDS011;5013;51.840;8.276;2023-08-06T15:01:06;1.30;;;1.30;;
9948;SDS011;5013;51.840;8.276;2023-08-06T15:03:32;1.60;;;1.50;;
9948;SDS011;5013;51.840;8.276;2023-08-06T15:05:58;1.50;;;1.50;;
9948;SDS011;5013;51.840;8.276;2023-08-06T15:08:24;5.17;;;1.70;;
9948;SDS011;5013;51.840;8.276;2023-08-06T15:10:50;1.80;;;1.70;;
9948;SDS011;5013;51.840;8.276;2023-08-06T15:13:17;2.43;;;1.93;;
9948;SDS011;5013;51.840;8.276;2023-08-06T15:15:43;2.47;;;2.27;;
9948;SDS011;5013;51.840;8.276;2023-08-06T15:18:09;2.40;;;2.30;;
9948;SDS011;5013;51.840;8.276;2023-08-06T15:20:36;2.30;;;2.10;;
9948;SDS011;5013;51.840;8.276;2023-08-06T15:23:01;3.07;;;2.00;;